Terminal Aerodrome Forecast
Issued by NWS

Home | Current Version | Previous Version | Text Only | Print | Product List | Glossary On
Versions: 1 2 3 4 5 6 7 8 9 10 11 12 13 14 15 16 17 18
000
FTUS42 KJAX 041123
TAFCRG
TAF
KCRG 041123Z 0412/0512 09006KT P6SM SCT045 SCT250
     FM041500 11011G18KT P6SM SCT040 BKN080
     FM042300 14007KT P6SM SCT035 BKN050
     FM050800 18006KT P6SM SCT025 BKN100=

USA.gov is the U.S. government's official web portal to all federal, state and local government web resources and services.